»·PEaware :: RNGR804 KEFD-KNGP

RNGR804 :: KEFD-KNGP

FLIGHT INFORMATION

Flight Status: Arrived
Operator: Unknown
More flights by this operator :: More flights under this callsign
Pilot: USN Avenger (31125)
Aircraft: BEECH AIRCRAFT T-6A TEXAN
(TEX2)
More flights by this aircraft type
Origin: KEFD Ellington
United States
Destination: KNGP Corpus Christi NAS/Truax
United States
More flights between these airports :: More routes between these airports
Route: KARRR7 PSX V20 CRP
File this flight plan on PilotEdge
Remarks: REQUEST ILS Z RWY13R
Altitude:
(Current/Filed)
15,000ft
Speed:
(Current/Filed)
240kts
Departed: 04-Dec-23 02:48 PM
Arrived: 04-Dec-23 03:40 PM
Distance/Time
Traveled:
161nm/0:51
Distance/Time
To Go:
Arrived

Flight Plot

Page will automatically refresh every two minutes.

Flight plan parsing failed; only flown route is shown


Map Options




Map Legend


Flown Route
Filed Route
Departure Airport
Arrival Airport
Navaid (VOR, NDB)
Fix

Horizontal Profiles

Position Reports

Time Latitude Longitude Heading Altitude Ground
Speed
04-Dec-23 14:42 29.618010 -95.156198 178 36ft 0kts
04-Dec-23 14:43 29.618008 -95.156198 178 36ft 0kts
04-Dec-23 14:44 29.618007 -95.156198 178 36ft 0kts
04-Dec-23 14:45 29.618005 -95.156198 178 36ft 0kts
04-Dec-23 14:46 29.618003 -95.156198 178 36ft 0kts
04-Dec-23 14:47 29.608607 -95.155944 178 169ft 118kts
04-Dec-23 14:48 29.571166 -95.159129 185 2658ft 142kts
04-Dec-23 14:49 29.541412 -95.184956 230 5390ft 153kts
04-Dec-23 14:50 29.510534 -95.222318 223 8046ft 162kts
04-Dec-23 14:51 29.476672 -95.258788 226 10547ft 167kts
04-Dec-23 14:52 29.444486 -95.299304 219 12814ft 174kts
04-Dec-23 14:53 29.409355 -95.337954 227 14930ft 179kts
04-Dec-23 14:54 29.369277 -95.388989 227 15263ft 225kts
04-Dec-23 14:55 29.320646 -95.436914 221 15058ft 232kts
04-Dec-23 14:56 29.286839 -95.498179 248 15061ft 235kts
04-Dec-23 14:57 29.264985 -95.570034 250 15038ft 242kts
04-Dec-23 14:58 29.241130 -95.641724 251 15002ft 240kts
04-Dec-23 14:59 29.220379 -95.714230 252 14998ft 239kts
04-Dec-23 15:00 29.200918 -95.786869 253 15001ft 239kts
04-Dec-23 15:01 29.154851 -95.838625 225 15026ft 238kts
04-Dec-23 15:02 29.107971 -95.892567 223 14992ft 239kts
04-Dec-23 15:03 29.061828 -95.947204 227 15001ft 238kts
04-Dec-23 15:04 29.017671 -96.003756 223 14995ft 239kts
04-Dec-23 15:05 28.970731 -96.057737 226 15018ft 238kts
04-Dec-23 15:06 28.926574 -96.114594 227 15010ft 240kts
04-Dec-23 15:07 28.877822 -96.166534 223 15011ft 240kts
04-Dec-23 15:08 28.831631 -96.221988 230 15019ft 240kts
04-Dec-23 15:09 28.789521 -96.281163 229 15035ft 240kts
04-Dec-23 15:10 28.742448 -96.335490 225 15019ft 241kts
04-Dec-23 15:11 28.697283 -96.392134 224 15027ft 240kts
04-Dec-23 15:12 28.650159 -96.446167 227 15045ft 240kts
04-Dec-23 15:13 28.602510 -96.499255 223 15040ft 241kts
04-Dec-23 15:14 28.554815 -96.553310 226 15049ft 240kts
04-Dec-23 15:15 28.508650 -96.608435 226 15044ft 241kts
04-Dec-23 15:16 28.463655 -96.664863 228 15096ft 239kts
04-Dec-23 15:17 28.416165 -96.718413 225 15067ft 241kts
04-Dec-23 15:18 28.370388 -96.772911 224 14130ft 232kts
04-Dec-23 15:19 28.324972 -96.819111 220 12788ft 194kts
04-Dec-23 15:20 28.286064 -96.858969 224 11565ft 186kts
04-Dec-23 15:21 28.248719 -96.900918 229 9905ft 193kts
04-Dec-23 15:22 28.213206 -96.951220 229 7359ft 220kts
04-Dec-23 15:23 28.177485 -97.004936 235 5013ft 215kts
04-Dec-23 15:24 28.146748 -97.060598 235 2805ft 198kts
04-Dec-23 15:25 28.117765 -97.113736 243 2955ft 206kts
04-Dec-23 15:26 28.083241 -97.166861 246 2885ft 211kts
04-Dec-23 15:27 28.059063 -97.225625 246 3026ft 201kts
04-Dec-23 15:28 28.032070 -97.282914 238 2839ft 207kts
04-Dec-23 15:30 28.003808 -97.339222 239 2862ft 205kts
04-Dec-23 15:31 27.969303 -97.388140 222 2322ft 196kts
04-Dec-23 15:32 27.928396 -97.430045 221 1400ft 203kts
04-Dec-23 15:33 27.877111 -97.435418 161 1490ft 202kts
04-Dec-23 15:34 27.831664 -97.421728 167 1377ft 154kts
04-Dec-23 15:35 27.792043 -97.403601 148 1480ft 154kts
04-Dec-23 15:36 27.761978 -97.370122 136 1407ft 151kts
04-Dec-23 15:37 27.738035 -97.342000 131 1141ft 113kts
04-Dec-23 15:38 27.714434 -97.316136 133 438ft 117kts
04-Dec-23 15:39 27.693563 -97.293162 135 22ft 41kts
04-Dec-23 15:40 27.689647 -97.288690 136 22ft 9kts
04-Dec-23 15:41 27.689558 -97.287576 76 22ft 10kts

Navigation Log

Ident Type
Flight plan parsing failed, navigation log unavailable